Time;durP1;ratioP1;P1;durP2;ratioP2;P2;SDS_P1;SDS_P2;PMS_P1;PMS_P2;Temp;Humidity;BMP_temperature;BMP_pressure;BME280_temperature;BME280_humidity;BME280_pressure;Samples;Min_cycle;Max_cycle;Signal;HPM_P1;HPM_P2
2021/10/22 00:02:06;;;;;;;1.37;1.27;;;;;;;;;;4955137;29;20547;-94
2021/10/22 00:04:35;;;;;;;3.93;1.43;;;6.90;99.90;;;;;;4950962;29;20641;-90
2021/10/22 00:07:04;;;;;;;5.00;1.90;;;;;;;;;;4954126;29;20463;-88
2021/10/22 00:09:31;;;;;;;2.60;1.30;;;;;;;;;;4953210;29;20497;-87
2021/10/22 00:11:58;;;;;;;5.60;1.40;;;;;;;;;;4951618;29;20474;-87
2021/10/22 00:14:25;;;;;;;3.70;1.47;;;;;;;;;;4954416;29;20463;-88
2021/10/22 00:16:54;;;;;;;3.40;1.73;;;;;;;;;;4950990;29;20502;-90
2021/10/22 00:19:21;;;;;;;1.40;1.30;;;;;;;;;;4952058;29;20455;-94
2021/10/22 00:21:50;;;;;;;2.87;1.77;;;;;;;;;;4954307;29;20825;-91
2021/10/22 00:24:17;;;;;;;5.43;2.00;;;;;;;;;;4964068;28;20465;-94
2021/10/22 00:26:44;;;;;;;4.10;1.70;;;;;;;;;;4975541;28;20454;-88
2021/10/22 00:29:11;;;;;;;1.53;1.30;;;;;;;;;;4975570;28;20465;-87
2021/10/22 00:31:38;;;;;;;2.53;1.50;;;;;;;;;;4975693;28;20450;-89
2021/10/22 00:34:06;;;;;;;4.40;1.47;;;;;;;;;;4975821;28;20965;-92
2021/10/22 00:36:33;;;;;;;2.07;1.20;;;;;;;;;;4987133;28;20462;-87
2021/10/22 00:39:01;;;;;;;2.60;1.47;;;6.20;99.90;;;;;;4994189;28;21008;-91
2021/10/22 00:41:29;;;;;;;1.77;1.60;;;;;;;;;;4995175;28;20904;-90
2021/10/22 00:43:56;;;;;;;1.33;1.00;;;;;;;;;;4995354;28;20457;-93
2021/10/22 00:46:27;;;;;;;1.33;1.23;;;;;;;;;;4996194;28;20449;-88
2021/10/22 00:48:57;;;;;;;1.90;1.50;;;;;;;;;;4996436;28;20469;-86
2021/10/22 00:51:24;;;;;;;2.30;1.40;;;;;;;;;;4996154;28;20453;-90
2021/10/22 00:53:52;;;;;;;1.63;1.30;;;;;;;;;;4995111;28;21007;-89
2021/10/22 00:56:21;;;;;;;2.00;1.10;;;;;;;;;;4995343;28;20453;-86
2021/10/22 00:58:48;;;;;;;2.53;1.43;;;;;;;;;;4994142;28;20496;-91
2021/10/22 01:01:16;;;;;;;1.93;1.70;;;;;;;;;;5001323;28;20960;-86
2021/10/22 01:03:43;;;;;;;2.40;1.67;;;;;;;;;;5004625;28;20445;-93
2021/10/22 01:06:11;;;;;;;2.40;1.43;;;;;;;;;;4997379;28;20461;-87
2021/10/22 01:08:40;;;;;;;3.23;1.60;;;;;;;;;;4995135;28;20489;-89
2021/10/22 01:11:07;;;;;;;3.43;1.87;;;;;;;;;;4996976;28;20485;-88
2021/10/22 01:13:36;;;;;;;2.00;1.77;;;6.60;99.90;;;;;;4996135;28;20460;-92
2021/10/22 01:16:03;;;;;;;2.90;1.90;;;;;;;;;;4999554;28;20460;-90
2021/10/22 01:18:31;;;;;;;2.60;1.73;;;;;;;;;;5002289;28;20515;-91
2021/10/22 01:20:59;;;;;;;5.77;2.10;;;6.60;99.90;;;;;;4999279;28;20512;-87
2021/10/22 01:23:27;;;;;;;2.90;1.70;;;;;;;;;;4998621;28;20453;-89
2021/10/22 01:25:54;;;;;;;11.23;1.70;;;;;;;;;;4999599;28;20448;-88
2021/10/22 01:28:21;;;;;;;1.67;1.40;;;;;;;;;;5007890;28;20457;-86
2021/10/22 01:30:48;;;;;;;2.43;1.17;;;;;;;;;;5003030;28;20452;-87
2021/10/22 01:33:17;;;;;;;2.43;1.30;;;;;;;;;;4998645;28;20457;-93
2021/10/22 01:35:45;;;;;;;2.10;1.83;;;;;;;;;;4999688;28;20453;-87
2021/10/22 01:38:14;;;;;;;4.23;1.80;;;6.60;99.90;;;;;;5000303;28;20493;-88
2021/10/22 01:40:41;;;;;;;1.50;1.27;;;;;;;;;;4997962;28;20970;-88
2021/10/22 01:43:08;;;;;;;5.67;1.57;;;;;;;;;;4998098;28;20452;-88
2021/10/22 01:45:35;;;;;;;2.60;1.53;;;;;;;;;;5000110;28;20453;-88
2021/10/22 01:48:03;;;;;;;5.80;2.23;;;;;;;;;;5001004;28;20453;-93
2021/10/22 01:50:31;;;;;;;4.03;1.40;;;;;;;;;;5001956;28;20468;-92
2021/10/22 01:52:58;;;;;;;3.90;1.50;;;;;;;;;;5000354;28;20791;-87
2021/10/22 01:55:26;;;;;;;7.97;1.50;;;6.70;99.90;;;;;;5001205;28;20453;-88
2021/10/22 01:57:53;;;;;;;3.60;1.90;;;;;;;;;;5003077;28;20485;-88
2021/10/22 02:00:20;;;;;;;2.30;1.23;;;;;;;;;;5000869;28;20466;-91
2021/10/22 02:02:47;;;;;;;1.50;1.13;;;;;;;;;;5004096;28;20461;-87
2021/10/22 02:05:15;;;;;;;2.10;1.57;;;;;;;;;;5003424;28;20461;-88
2021/10/22 02:07:42;;;;;;;4.33;1.97;;;;;;;;;;5003234;28;20456;-87
2021/10/22 02:10:09;;;;;;;3.50;1.47;;;;;;;;;;5002638;28;20453;-87
2021/10/22 02:12:37;;;;;;;4.70;1.70;;;6.50;99.90;;;;;;5003794;28;20445;-88
2021/10/22 02:15:05;;;;;;;4.20;1.47;;;;;;;;;;5001418;28;20445;-90
2021/10/22 02:17:32;;;;;;;6.40;1.33;;;;;;;;;;4997875;28;20449;-88
2021/10/22 02:19:59;;;;;;;9.50;2.00;;;;;;;;;;5000710;28;21023;-89
2021/10/22 02:22:27;;;;;;;6.57;1.73;;;;;;;;;;4998229;28;20945;-88
2021/10/22 02:24:54;;;;;;;2.53;1.50;;;;;;;;;;4997688;28;20453;-87
2021/10/22 02:27:21;;;;;;;3.40;1.50;;;;;;;;;;4995514;28;20457;-92
2021/10/22 02:29:50;;;;;;;2.50;1.43;;;6.20;99.90;;;;;;4999888;28;20437;-89
2021/10/22 02:32:17;;;;;;;3.80;1.33;;;;;;;;;;4997245;28;20438;-90
2021/10/22 02:34:44;;;;;;;3.00;1.40;;;;;;;;;;4996946;28;20504;-89
2021/10/22 02:37:12;;;;;;;6.57;1.90;;;;;;;;;;4999092;28;20453;-88
2021/10/22 02:39:39;;;;;;;5.57;1.70;;;;;;;;;;4996452;28;20523;-87
2021/10/22 02:42:06;;;;;;;5.10;1.47;;;6.00;99.90;;;;;;4999141;28;20466;-88
2021/10/22 02:44:34;;;;;;;5.37;2.63;;;;;;;;;;4999345;28;20536;-91
2021/10/22 02:47:03;;;;;;;3.10;1.53;;;;;;;;;;5000004;28;20826;-89
2021/10/22 02:49:30;;;;;;;3.63;1.20;;;;;;;;;;4999537;28;20461;-88
2021/10/22 02:51:57;;;;;;;3.70;1.53;;;;;;;;;;4999738;28;20872;-88
2021/10/22 02:54:25;;;;;;;4.53;1.33;;;;;;;;;;4999873;28;20457;-89
2021/10/22 02:56:52;;;;;;;3.10;1.77;;;;;;;;;;5005563;28;20452;-86
2021/10/22 02:59:19;;;;;;;3.00;1.50;;;;;;;;;;5007085;28;20493;-91
2021/10/22 03:01:46;;;;;;;1.93;1.43;;;;;;;;;;4996921;28;20453;-87
2021/10/22 03:04:15;;;;;;;8.70;2.10;;;5.50;99.90;;;;;;4996822;28;20493;-93
2021/10/22 03:06:42;;;;;;;7.90;1.80;;;;;;;;;;4995887;28;20441;-90
2021/10/22 03:09:09;;;;;;;6.40;1.63;;;;;;;;;;4995071;28;20484;-90
2021/10/22 03:11:36;;;;;;;4.57;1.90;;;;;;;;;;4996799;28;20430;-92
2021/10/22 03:14:04;;;;;;;8.13;1.77;;;;;;;;;;4996364;28;20785;-91
2021/10/22 03:16:31;;;;;;;4.27;1.40;;;;;;;;;;5000570;28;20469;-89
2021/10/22 03:18:59;;;;;;;7.23;2.00;;;;;;;;;;5005510;28;20488;-89
2021/10/22 03:21:27;;;;;;;4.73;1.77;;;;;;;;;;4999579;28;20454;-90
2021/10/22 03:23:56;;;;;;;3.10;1.17;;;;;;;;;;4995250;28;20515;-89
2021/10/22 03:26:23;;;;;;;7.40;1.50;;;;;;;;;;4996386;28;20476;-89
2021/10/22 03:28:50;;;;;;;12.23;1.63;;;;;;;;;;4996139;28;20457;-89
2021/10/22 03:31:17;;;;;;;3.90;1.47;;;;;;;;;;4996001;28;20460;-89
2021/10/22 03:33:45;;;;;;;1.83;1.20;;;;;;;;;;4995853;28;20453;-91
2021/10/22 03:36:12;;;;;;;5.40;1.30;;;;;;;;;;4995579;28;20460;-90
2021/10/22 03:38:40;;;;;;;2.47;1.37;;;;;;;;;;4994257;28;20860;-93
2021/10/22 03:41:08;;;;;;;4.47;1.43;;;;;;;;;;4995927;28;20472;-89
2021/10/22 03:43:35;;;;;;;5.33;1.47;;;;;;;;;;4995449;28;20485;-92
2021/10/22 03:46:03;;;;;;;7.40;1.60;;;;;;;;;;4995012;28;20448;-93
2021/10/22 03:48:30;;;;;;;3.43;1.73;;;;;;;;;;4995318;28;21028;-91
2021/10/22 03:50:57;;;;;;;3.30;1.13;;;;;;;;;;4995382;28;20456;-93
2021/10/22 03:53:25;;;;;;;2.77;1.50;;;;;;;;;;4995336;28;20476;-91
2021/10/22 03:55:53;;;;;;;9.70;1.77;;;;;;;;;;4995049;28;20445;-92
2021/10/22 03:58:20;;;;;;;4.70;1.97;;;;;;;;;;4990188;28;20485;-91
2021/10/22 04:00:48;;;;;;;3.60;1.70;;;;;;;;;;4994881;28;20460;-88
2021/10/22 04:03:15;;;;;;;4.77;2.00;;;;;;;;;;4994620;28;20449;-90
2021/10/22 04:05:43;;;;;;;7.50;1.67;;;;;;;;;;4994829;28;20445;-89
2021/10/22 04:08:10;;;;;;;7.30;1.80;;;;;;;;;;4994789;28;20485;-90
2021/10/22 04:10:41;;;;;;;7.93;2.23;;;;;;;;;;4993390;28;21023;-90
2021/10/22 04:13:09;;;;;;;7.07;1.70;;;4.30;99.90;;;;;;4994721;28;20446;-89
2021/10/22 04:15:38;;;;;;;11.20;2.50;;;;;;;;;;4977039;28;20449;-89
2021/10/22 04:18:05;;;;;;;6.80;2.17;;;;;;;;;;4994401;28;20449;-89
2021/10/22 04:20:32;;;;;;;5.90;1.50;;;;;;;;;;4997125;28;20441;-89
2021/10/22 04:22:59;;;;;;;4.97;1.40;;;;;;;;;;4992540;28;20818;-89
2021/10/22 04:25:26;;;;;;;10.83;2.33;;;;;;;;;;4996506;28;20456;-87
2021/10/22 04:27:54;;;;;;;5.70;1.73;;;;;;;;;;4999614;28;20445;-90
2021/10/22 04:30:23;;;;;;;9.27;2.30;;;;;;;;;;4994197;28;20817;-88
2021/10/22 04:32:50;;;;;;;7.20;2.70;;;;;;;;;;4993781;28;21003;-89
2021/10/22 04:35:17;;;;;;;3.03;2.20;;;;;;;;;;4994356;28;20441;-91
2021/10/22 04:38:00;;;;;;;9.83;1.90;;;;;;;;;;4994312;28;20445;-88
2021/10/22 04:40:30;;;;;;;4.23;2.17;;;4.10;99.90;;;;;;4993302;28;20517;-89
2021/10/22 04:43:00;;;;;;;18.10;3.03;;;4.10;99.90;;;;;;5000334;28;20949;-87
2021/10/22 04:45:28;;;;;;;5.43;2.17;;;4.00;99.90;;;;;;5000626;28;20477;-88
2021/10/22 04:47:56;;;;;;;6.30;1.90;;;;;;;;;;4996074;28;20448;-88
2021/10/22 04:50:23;;;;;;;6.40;1.73;;;;;;;;;;4996790;28;20456;-89
2021/10/22 04:52:53;;;;;;;3.97;1.83;;;;;;;;;;4997492;28;20456;-88
2021/10/22 04:55:21;;;;;;;4.03;2.00;;;4.10;99.90;;;;;;4996953;28;20456;-91
2021/10/22 04:57:49;;;;;;;5.17;2.67;;;;;;;;;;4995557;28;20519;-88
2021/10/22 05:00:16;;;;;;;4.13;1.70;;;;;;;;;;4997792;28;20496;-92
2021/10/22 05:02:45;;;;;;;6.80;1.87;;;;;;;;;;4999253;28;20457;-90
2021/10/22 05:05:12;;;;;;;3.30;1.70;;;;;;;;;;4999386;28;20441;-87
2021/10/22 05:07:40;;;;;;;6.73;2.10;;;;;;;;;;4998307;28;20519;-89
2021/10/22 05:10:08;;;;;;;8.17;1.80;;;4.10;99.90;;;;;;4997523;28;20457;-88
2021/10/22 05:12:35;;;;;;;10.10;1.87;;;;;;;;;;4997588;28;20595;-89
2021/10/22 05:15:03;;;;;;;6.50;2.17;;;;;;;;;;4997488;28;20444;-88
2021/10/22 05:17:32;;;;;;;11.03;2.27;;;;;;;;;;4997600;28;20475;-94
2021/10/22 05:20:00;;;;;;;6.33;1.70;;;;;;;;;;4998003;28;20484;-89
2021/10/22 05:22:27;;;;;;;8.40;1.60;;;;;;;;;;4998162;28;20452;-88
2021/10/22 05:24:55;;;;;;;5.23;1.87;;;;;;;;;;4996575;28;20956;-88
2021/10/22 05:27:22;;;;;;;6.33;1.53;;;;;;;;;;4997621;28;20820;-88
2021/10/22 05:29:49;;;;;;;10.30;2.20;;;;;;;;;;4997794;28;20460;-91
2021/10/22 05:32:16;;;;;;;9.00;1.97;;;;;;;;;;5002563;28;20940;-87
2021/10/22 05:34:43;;;;;;;12.03;2.00;;;;;;;;;;5000493;28;20472;-87
2021/10/22 05:37:12;;;;;;;3.73;2.13;;;;;;;;;;4997789;28;20454;-92
2021/10/22 05:39:39;;;;;;;5.80;2.03;;;;;;;;;;4996278;28;20501;-87
2021/10/22 05:42:06;;;;;;;4.10;1.70;;;;;;;;;;4997550;28;20465;-90
2021/10/22 05:44:33;;;;;;;6.93;2.00;;;;;;;;;;4997206;28;20952;-89
2021/10/22 05:47:01;;;;;;;4.80;1.83;;;;;;;;;;4997593;28;20508;-89
2021/10/22 05:49:28;;;;;;;11.47;2.20;;;;;;;;;;4996946;28;20549;-87
2021/10/22 05:51:55;;;;;;;4.33;1.67;;;;;;;;;;4996963;28;20457;-85
2021/10/22 05:54:23;;;;;;;9.07;1.97;;;4.40;99.90;;;;;;4997388;28;20460;-86
2021/10/22 05:56:51;;;;;;;6.47;1.73;;;;;;;;;;5006003;28;20445;-89
2021/10/22 05:59:18;;;;;;;3.70;1.80;;;;;;;;;;4998146;28;20485;-91
2021/10/22 06:01:46;;;;;;;11.03;3.20;;;;;;;;;;4995659;28;20472;-89
2021/10/22 06:04:14;;;;;;;7.10;2.93;;;;;;;;;;4997162;28;20457;-90
2021/10/22 06:06:42;;;;;;;5.43;2.93;;;;;;;;;;4998648;28;20544;-88
2021/10/22 06:09:11;;;;;;;3.80;1.83;;;;;;;;;;4983165;28;20989;-88
2021/10/22 06:11:40;;;;;;;6.13;2.20;;;;;;;;;;4977189;28;20458;-90
2021/10/22 06:14:07;;;;;;;5.73;2.10;;;;;;;;;;4979265;28;20446;-89
2021/10/22 06:16:37;;;;;;;7.10;2.53;;;4.50;99.90;;;;;;4978630;28;20509;-89
2021/10/22 06:19:04;;;;;;;14.17;2.77;;;;;;;;;;4978078;28;20500;-91
2021/10/22 06:21:36;;;;;;;10.77;2.63;;;4.60;99.90;;;;;;4977493;28;20451;-88
2021/10/22 06:24:04;;;;;;;9.60;4.33;;;4.60;99.90;;;;;;4977161;28;20442;-88
2021/10/22 06:26:33;;;;;;;5.23;2.10;;;4.70;99.90;;;;;;4978576;28;20458;-92
2021/10/22 06:29:02;;;;;;;8.50;2.27;;;4.70;99.90;;;;;;4977454;28;20863;-86
2021/10/22 06:31:29;;;;;;;5.50;3.17;;;;;;;;;;4977601;28;20447;-89
2021/10/22 06:33:57;;;;;;;5.67;2.23;;;;;;;;;;4976807;28;20456;-88
2021/10/22 06:36:24;;;;;;;12.47;3.20;;;;;;;;;;4978358;28;20450;-89
2021/10/22 06:38:51;;;;;;;5.30;3.27;;;;;;;;;;4986457;28;20937;-87
2021/10/22 06:41:19;;;;;;;10.10;4.20;;;;;;;;;;4996604;28;20452;-87
2021/10/22 06:43:47;;;;;;;6.63;2.30;;;;;;;;;;4997225;28;20457;-92
2021/10/22 06:46:16;;;;;;;9.47;2.47;;;4.90;99.90;;;;;;4998496;28;20524;-87
2021/10/22 06:48:44;;;;;;;8.33;2.43;;;;;;;;;;4996180;28;20453;-85
2021/10/22 06:51:12;;;;;;;7.67;2.13;;;5.00;99.90;;;;;;5000082;28;20449;-86
2021/10/22 06:53:40;;;;;;;4.90;2.07;;;;;;;;;;4996114;28;20453;-89
2021/10/22 06:56:07;;;;;;;10.60;2.40;;;;;;;;;;4995732;28;20453;-86
2021/10/22 06:58:35;;;;;;;3.90;2.47;;;;;;;;;;4993585;28;20458;-87
2021/10/22 07:01:02;;;;;;;10.10;2.70;;;;;;;;;;4996469;28;20456;-84
2021/10/22 07:03:38;;;;;;;5.23;2.00;;;5.30;99.90;;;;;;4995002;28;20457;-86
2021/10/22 07:08:51;;;;;;;8.80;2.50;;;;;;;;;;4994392;28;20526;-86
2021/10/22 07:11:19;;;;;;;6.70;2.10;;;;;;;;;;4995445;28;20453;-89
2021/10/22 07:13:50;;;;;;;16.47;2.83;;;;;;;;;;4994425;28;20488;-88
2021/10/22 07:16:18;;;;;;;13.07;2.27;;;;;;;;;;4995788;28;20516;-88
2021/10/22 07:18:48;;;;;;;7.23;2.13;;;;;;;;;;4995196;28;20479;-88
2021/10/22 07:21:17;;;;;;;3.30;1.73;;;;;;;;;;4995482;28;20454;-89
2021/10/22 07:23:46;;;;;;;3.73;1.50;;;;;;;;;;5002694;28;20460;-91
2021/10/22 07:26:13;;;;;;;14.73;2.67;;;;;;;;;;5010020;28;20456;-89
2021/10/22 07:28:41;;;;;;;6.27;2.27;;;;;;;;;;5005732;28;20452;-90
2021/10/22 07:31:10;;;;;;;5.27;2.40;;;;;;;;;;4997610;28;20488;-90
2021/10/22 07:33:38;;;;;;;7.10;1.70;;;;;;;;;;5000558;28;20449;-88
2021/10/22 07:36:08;;;;;;;10.30;2.13;;;;;;;;;;5000165;28;20504;-87
2021/10/22 07:38:35;;;;;;;10.30;3.50;;;;;;;;;;4979406;28;20472;-87
2021/10/22 07:41:04;;;;;;;10.80;2.57;;;;;;;;;;4979892;28;20485;-86
2021/10/22 07:43:31;;;;;;;4.40;1.77;;;8.60;99.90;;;;;;4979204;28;20462;-90
2021/10/22 07:45:59;;;;;;;7.87;2.03;;;;;;;;;;4975617;28;20478;-86
2021/10/22 07:48:26;;;;;;;8.50;2.80;;;;;;;;;;4982356;28;20879;-88
2021/10/22 07:50:54;;;;;;;4.17;2.37;;;;;;;;;;4981131;28;20505;-87
2021/10/22 07:53:23;;;;;;;5.00;2.00;;;;;;;;;;4982673;28;20485;-87
2021/10/22 07:55:50;;;;;;;5.27;2.20;;;;;;;;;;4978283;28;20454;-89
2021/10/22 07:58:17;;;;;;;4.63;1.90;;;;;;;;;;4981185;28;20458;-88
2021/10/22 08:00:44;;;;;;;6.53;1.80;;;;;;;;;;4980087;28;20458;-90
2021/10/22 08:03:13;;;;;;;8.27;2.30;;;9.40;99.90;;;;;;4978769;28;20821;-86
2021/10/22 08:05:40;;;;;;;8.40;2.23;;;;;;;;;;4979455;28;20453;-87
2021/10/22 08:08:09;;;;;;;8.73;2.70;;;9.70;99.90;;;;;;4980449;28;21819;-90
2021/10/22 08:10:37;;;;;;;9.83;2.97;;;;;;;;;;4981554;28;20900;-90
2021/10/22 08:13:09;;;;;;;4.13;1.63;;;;;;;;;;4980515;28;20462;-89
2021/10/22 08:15:41;;;;;;;6.47;2.37;;;;;;;;;;4979625;28;20450;-90
2021/10/22 08:18:10;;;;;;;5.23;1.90;;;10.70;99.90;;;;;;4978888;28;20516;-88
2021/10/22 08:20:38;;;;;;;11.37;2.10;;;;;;;;;;4977106;28;20461;-94
2021/10/22 08:23:05;;;;;;;10.50;1.67;;;;;;;;;;4975663;28;20473;-90
2021/10/22 08:25:33;;;;;;;7.23;2.20;;;;;;;;;;4975566;28;20536;-92
2021/10/22 08:28:02;;;;;;;5.30;2.40;;;;;;;;;;4976629;28;20454;-93
2021/10/22 08:30:31;;;;;;;7.40;2.40;;;;;;;;;;4980225;28;20470;-92
2021/10/22 08:32:58;;;;;;;8.43;2.43;;;;;;;;;;4975936;28;20464;-94
2021/10/22 08:35:28;;;;;;;5.20;1.80;;;10.90;99.90;;;;;;4975499;28;20482;-93
2021/10/22 08:37:55;;;;;;;6.77;1.57;;;;;;;;;;4975605;28;20442;-89
2021/10/22 08:40:23;;;;;;;8.93;1.97;;;;;;;;;;4978643;28;20466;-91
2021/10/22 08:42:51;;;;;;;3.43;1.60;;;11.70;99.90;;;;;;4982781;28;20446;-88
2021/10/22 08:45:20;;;;;;;3.90;1.40;;;11.70;99.90;;;;;;4983514;28;20461;-93
2021/10/22 08:47:47;;;;;;;6.47;2.20;;;;;;;;;;4976156;28;20454;-90
2021/10/22 08:50:18;;;;;;;10.63;1.83;;;11.90;99.90;;;;;;4975390;28;20690;-89
2021/10/22 08:52:46;;;;;;;3.77;1.27;;;11.70;99.90;;;;;;4976199;28;20458;-86
2021/10/22 08:55:14;;;;;;;7.67;1.97;;;11.50;99.90;;;;;;4981154;28;20453;-86
2021/10/22 08:57:44;;;;;;;7.30;1.80;;;11.70;99.90;;;;;;4911363;28;20812;-88
2021/10/22 09:00:13;;;;;;;9.70;1.97;;;11.30;99.90;;;;;;4980097;28;20458;-86
2021/10/22 09:02:44;;;;;;;6.80;1.50;;;;;;;;;;4988519;28;20466;-88
2021/10/22 09:05:14;;;;;;;3.17;1.40;;;12.20;99.90;;;;;;4983060;28;20465;-86
2021/10/22 09:07:43;;;;;;;8.13;2.10;;;12.00;99.90;;;;;;4977205;28;20549;-87
2021/10/22 09:10:13;;;;;;;4.47;1.70;;;11.30;99.90;;;;;;4992908;28;21043;-89
2021/10/22 09:12:49;;;;;;;7.17;2.93;;;12.00;99.90;;;;;;4994003;28;20481;-86
2021/10/22 09:15:21;;;;;;;5.77;1.33;;;12.40;99.90;;;;;;4992513;28;20461;-85
2021/10/22 09:17:51;;;;;;;9.07;2.07;;;;;;;;;;4992255;28;20456;-85
2021/10/22 09:20:18;;;;;;;5.50;1.33;;;;;;;;;;4992884;28;20496;-86
2021/10/22 09:22:53;;;;;;;3.07;1.30;;;12.20;99.90;;;;;;4992849;28;20449;-86
2021/10/22 09:25:22;;;;;;;3.60;1.33;;;11.90;99.90;;;;;;4990952;28;20456;-85
2021/10/22 09:27:54;;;;;;;6.00;1.60;;;12.30;99.90;;;;;;4992210;28;20519;-85
2021/10/22 09:30:33;;;;;;;8.80;2.10;;;12.50;99.90;;;;;;4992566;28;20481;-85
2021/10/22 09:33:04;;;;;;;4.83;1.30;;;12.10;99.90;;;;;;4991696;28;20968;-87
2021/10/22 09:35:35;;;;;;;3.33;1.30;;;12.20;99.90;;;;;;4992834;28;20457;-85
2021/10/22 09:38:07;;;;;;;1.80;1.00;;;;;;;;;;4996315;28;20830;-85
2021/10/22 09:40:36;;;;;;;5.83;1.23;;;;;;;;;;4995690;28;20453;-85
2021/10/22 09:43:19;;;;;;;2.87;1.00;;;11.30;99.90;;;;;;4996874;28;20457;-86
2021/10/22 09:45:48;;;;;;;4.23;1.03;;;;;;;;;;4996599;28;20457;-85
2021/10/22 09:48:28;;;;;;;5.40;1.40;;;12.80;99.90;;;;;;4993436;28;20456;-94
2021/10/22 09:50:56;;;;;;;11.10;1.83;;;13.00;99.90;;;;;;4998004;28;20485;-92
2021/10/22 09:53:25;;;;;;;6.77;1.40;;;13.00;99.90;;;;;;4998653;28;20449;-85
2021/10/22 09:56:01;;;;;;;1.47;0.60;;;;;;;;;;4995576;28;20461;-85
2021/10/22 09:58:28;;;;;;;3.83;1.00;;;;;;;;;;4998858;28;20441;-90
2021/10/22 10:01:10;;;;;;;5.43;1.17;;;12.50;99.70;;;;;;4999862;28;20468;-85
2021/10/22 10:03:40;;;;;;;3.67;0.70;;;12.30;98.80;;;;;;5002774;28;20464;-85
2021/10/22 10:06:07;;;;;;;2.67;0.83;;;;;;;;;;4996385;28;20944;-85
2021/10/22 10:08:36;;;;;;;4.73;1.33;;;;;;;;;;4994600;28;20580;-86
2021/10/22 10:11:03;;;;;;;2.70;1.00;;;;;;;;;;4996114;28;20548;-85
2021/10/22 10:13:33;;;;;;;2.63;0.87;;;;;;;;;;4996193;28;20454;-85
2021/10/22 10:16:00;;;;;;;3.53;1.20;;;;;;;;;;4998198;28;20452;-87
2021/10/22 10:18:28;;;;;;;3.40;0.93;;;;;;;;;;4997519;28;20500;-87
2021/10/22 10:20:58;;;;;;;4.17;0.90;;;13.20;98.90;;;;;;4996262;28;20453;-85
2021/10/22 10:23:32;;;;;;;4.17;0.90;;;13.30;95.00;;;;;;5001384;28;20453;-90
2021/10/22 10:26:25;;;;;;;2.83;1.00;;;12.70;95.30;;;;;;4997855;28;20558;-89
2021/10/22 10:28:53;;;;;;;5.33;1.10;;;;;;;;;;4976723;28;20450;-89
2021/10/22 10:31:28;;;;;;;4.10;0.87;;;13.70;96.50;;;;;;4977971;28;20497;-88
2021/10/22 10:33:55;;;;;;;3.03;1.23;;;;;;;;;;4976380;28;20971;-89
2021/10/22 10:36:45;;;;;;;2.30;0.73;;;13.50;91.60;;;;;;4980182;28;20805;-85
2021/10/22 10:39:12;;;;;;;1.77;0.97;;;;;;;;;;4996201;28;20811;-88
2021/10/22 10:41:39;;;;;;;3.20;0.60;;;;;;;;;;4993743;28;20476;-86
2021/10/22 10:44:31;;;;;;;2.67;0.97;;;13.70;92.30;;;;;;4999027;28;20792;-91
2021/10/22 10:46:59;;;;;;;3.23;1.20;;;14.10;93.20;;;;;;4996832;28;20454;-88
2021/10/22 10:50:00;;;;;;;2.00;0.83;;;14.30;94.80;;;;;;4984591;28;20454;-88
2021/10/22 10:52:50;;;;;;;1.97;0.70;;;14.20;98.40;;;;;;4978784;28;20544;-88
2021/10/22 10:55:21;;;;;;;2.07;0.70;;;13.20;95.30;;;;;;4978459;28;20450;-87
2021/10/22 10:57:51;;;;;;;4.83;1.10;;;;;;;;;;4978423;28;20477;-86
2021/10/22 11:00:19;;;;;;;5.03;1.07;;;13.60;93.00;;;;;;4976397;28;20901;-89
2021/10/22 11:03:10;;;;;;;2.30;1.10;;;13.20;91.20;;;;;;4975266;28;20454;-89
2021/10/22 11:06:13;;;;;;;2.57;1.20;;;;;;;;;;4978858;28;20461;-89
2021/10/22 11:08:47;;;;;;;4.60;1.37;;;13.80;95.00;;;;;;4997949;28;20508;-90
2021/10/22 11:11:35;;;;;;;1.80;0.50;;;13.70;89.30;;;;;;5001918;28;20489;-89
2021/10/22 11:14:42;;;;;;;8.03;1.37;;;13.90;93.10;;;;;;4992542;28;20540;-87
2021/10/22 11:17:10;;;;;;;4.83;1.10;;;13.80;94.50;;;;;;4995959;28;20465;-89
2021/10/22 11:19:39;;;;;;;1.33;0.60;;;14.10;91.90;;;;;;4995634;28;20886;-88
2021/10/22 11:22:12;;;;;;;2.50;0.70;;;13.70;89.40;;;;;;4995226;28;20468;-87
2021/10/22 11:24:41;;;;;;;4.50;0.90;;;13.70;92.50;;;;;;4993637;28;20461;-87
2021/10/22 11:27:10;;;;;;;2.57;0.60;;;13.70;92.40;;;;;;4994948;28;20850;-90
2021/10/22 11:29:39;;;;;;;2.40;0.60;;;14.20;92.40;;;;;;4994834;28;20805;-89
2021/10/22 11:32:10;;;;;;;1.53;0.60;;;14.30;92.10;;;;;;4994711;28;20503;-91
2021/10/22 11:34:39;;;;;;;2.00;0.80;;;13.60;90.20;;;;;;4995187;28;20545;-89
2021/10/22 11:37:08;;;;;;;2.20;0.80;;;;;;;;;;4994899;28;20465;-88
2021/10/22 11:39:38;;;;;;;3.33;0.90;;;13.20;89.70;;;;;;4999147;28;20516;-90
2021/10/22 11:42:09;;;;;;;2.00;0.93;;;13.40;90.80;;;;;;4996574;28;20441;-89
2021/10/22 11:44:55;;;;;;;4.40;1.27;;;13.00;91.80;;;;;;5000972;28;20457;-94
2021/10/22 11:47:33;;;;;;;3.23;1.03;;;13.30;85.90;;;;;;4996989;28;20503;-92
2021/10/22 11:50:18;;;;;;;3.80;0.73;;;;;;;;;;4996985;28;20449;-89
2021/10/22 11:52:45;;;;;;;4.00;1.53;;;;;;;;;;5004577;28;20456;-88
2021/10/22 11:55:20;;;;;;;0.83;0.60;;;12.70;80.10;;;;;;5001637;28;20432;-90
2021/10/22 11:57:49;;;;;;;3.50;1.13;;;;;;;;;;4996470;28;20452;-88
2021/10/22 12:00:17;;;;;;;2.87;0.83;;;;;;;;;;4998068;28;20515;-88
2021/10/22 12:02:52;;;;;;;2.80;0.57;;;;;;;;;;4999554;28;20464;-90
2021/10/22 12:05:20;;;;;;;1.77;0.60;;;;;;;;;;4995541;28;20896;-90
2021/10/22 12:07:49;;;;;;;3.57;0.93;;;13.40;89.30;;;;;;4984772;28;20443;-91
2021/10/22 12:10:22;;;;;;;0.80;0.50;;;;;;;;;;4936269;29;20452;-88
2021/10/22 12:12:53;;;;;;;1.00;0.60;;;13.20;85.30;;;;;;4937513;29;20959;-90
2021/10/22 12:15:25;;;;;;;4.13;0.80;;;13.50;90.20;;;;;;4937923;29;20491;-92
2021/10/22 12:17:54;;;;;;;2.00;0.50;;;13.30;85.60;;;;;;4938754;29;20444;-88
2021/10/22 12:20:21;;;;;;;2.10;0.60;;;;;;;;;;4939254;28;20459;-90
2021/10/22 12:22:56;;;;;;;2.17;1.00;;;13.60;91.40;;;;;;4935400;29;20455;-89
2021/10/22 12:25:24;;;;;;;5.33;1.40;;;;;;;;;;4934736;29;20989;-86
2021/10/22 12:27:53;;;;;;;1.70;1.00;;;13.80;90.50;;;;;;4935672;29;20514;-90
2021/10/22 12:30:22;;;;;;;2.50;1.00;;;13.90;87.30;;;;;;4935362;29;20457;-88
2021/10/22 12:32:50;;;;;;;5.00;0.80;;;;;;;;;;4935741;29;20934;-92
2021/10/22 12:35:23;;;;;;;1.50;0.80;;;14.00;88.10;;;;;;4896177;29;20481;-90
2021/10/22 12:38:02;;;;;;;2.20;0.63;;;13.60;86.00;;;;;;4894337;29;20486;-87
2021/10/22 12:40:32;;;;;;;2.23;0.90;;;12.70;88.10;;;;;;4895117;29;20449;-89
2021/10/22 12:43:10;;;;;;;7.37;1.60;;;13.10;88.70;;;;;;4897121;29;20454;-88
2021/10/22 12:45:47;;;;;;;6.23;0.73;;;13.30;81.20;;;;;;4897116;29;20454;-90
2021/10/22 12:48:17;;;;;;;1.73;0.90;;;12.90;87.30;;;;;;4891998;29;20497;-91
2021/10/22 12:50:47;;;;;;;8.53;1.00;;;13.50;86.00;;;;;;4894396;29;21029;-92
2021/10/22 12:53:19;;;;;;;1.67;0.70;;;13.40;84.90;;;;;;4910826;29;20495;-89
2021/10/22 12:55:59;;;;;;;3.27;0.70;;;13.20;83.40;;;;;;4936348;29;21003;-91
2021/10/22 12:58:28;;;;;;;6.47;1.33;;;;;;;;;;4904496;29;20456;-92
2021/10/22 13:01:16;;;;;;;3.87;1.13;;;13.10;82.80;;;;;;4936247;29;20444;-89
2021/10/22 13:03:46;;;;;;;2.93;0.70;;;13.50;85.70;;;;;;4938223;29;20932;-92
2021/10/22 13:06:21;;;;;;;2.23;0.60;;;13.20;89.60;;;;;;4938283;29;20451;-89
2021/10/22 13:22:33;;;;;;;1.87;0.70;;;;;;;;;;4982842;28;20426;-91
2021/10/22 13:25:01;;;;;;;0.60;0.50;;;;;;;;;;4990910;28;20464;-90
2021/10/22 13:27:28;;;;;;;1.70;0.87;;;;;;;;;;4983637;28;20450;-93
2021/10/22 13:29:58;;;;;;;3.27;0.77;;;;;;;;;;4984508;28;20961;-90
2021/10/22 13:32:29;;;;;;;2.33;1.07;;;12.60;93.80;;;;;;4984639;28;20489;-90
2021/10/22 13:34:56;;;;;;;2.80;1.13;;;;;;;;;;4983055;28;20466;-91
2021/10/22 13:37:24;;;;;;;10.63;1.47;;;;;;;;;;4982943;28;20522;-92
2021/10/22 13:39:51;;;;;;;5.03;1.23;;;13.20;92.00;;;;;;4982723;28;20422;-91
2021/10/22 13:42:19;;;;;;;3.03;1.03;;;;;;;;;;5035686;23;20479;-91
2021/10/22 13:44:46;;;;;;;2.53;1.00;;;;;;;;;;5045037;28;20481;-91
2021/10/22 13:47:26;;;;;;;1.93;1.17;;;;;;;;;;5041341;28;20486;-91
2021/10/22 13:49:55;;;;;;;4.70;1.20;;;;;;;;;;5053346;28;20474;-89
2021/10/22 13:52:26;;;;;;;2.40;1.07;;;;;;;;;;5048591;28;20486;-89
2021/10/22 13:54:53;;;;;;;4.20;1.27;;;;;;;;;;5042192;28;20496;-89
2021/10/22 13:57:20;;;;;;;1.67;0.90;;;;;;;;;;5038084;28;20451;-92
2021/10/22 13:59:49;;;;;;;6.10;1.33;;;13.00;91.30;;;;;;5040635;28;20509;-89
2021/10/22 14:02:17;;;;;;;2.70;0.97;;;;;;;;;;5043176;28;20440;-90
2021/10/22 14:04:45;;;;;;;1.40;0.67;;;;;;;;;;5046949;28;20507;-91
2021/10/22 14:07:12;;;;;;;1.90;0.83;;;;;;;;;;5041718;28;20464;-91
2021/10/22 14:09:41;;;;;;;2.73;0.87;;;;;;;;;;5039437;28;20459;-91
2021/10/22 14:12:12;;;;;;;3.00;1.30;;;13.60;92.70;;;;;;5042660;28;20564;-91
2021/10/22 14:14:44;;;;;;;2.23;1.00;;;;;;;;;;5048818;23;20578;-93
2021/10/22 14:20:14;;;;;;;4.03;1.00;;;;;;;;;;5019608;28;20499;-92
2021/10/22 14:30:35;;;;;;;3.23;0.93;;;;;;;;;;5020055;23;20225;-94
2021/10/22 14:33:02;;;;;;;2.80;1.13;;;;;;;;;;5046673;28;20513;-90
2021/10/22 14:35:33;;;;;;;1.90;0.60;;;;;;;;;;5058085;28;20458;-92
2021/10/22 14:38:01;;;;;;;4.70;1.30;;;;;;;;;;5045137;28;20463;-94
2021/10/22 14:43:02;;;;;;;0.80;0.60;;;12.40;94.20;;;;;;5048644;23;20567;-91
2021/10/22 14:48:14;;;;;;;2.67;1.00;;;;;;;;;;5050124;28;20447;-92
2021/10/22 14:51:13;;;;;;;3.13;0.97;;;12.10;93.80;;;;;;5055312;23;20487;-92